x

Santa Monica Basin - 33nm Wsw Of Santa Monica, Ca (46025) Wave Buoy

4:50 - Thu 26th Feb 2015 All times are PST. -8 hours from GMT.

  • Sig Wave height 3.0ft
  • Swell Direction
  • Peak Period 11s
  • Average Period 6s
  • Wind
    4mph
  • Sea Temp 64°f
  • Aire Temp 61°f
  • Sea Pressure 1010.3mb
  • Santa Monica Basin - 33nm Wsw Of Santa Monica, Ca
  • Santa Monica Basin - 33nm Wsw Of Santa Monica, Ca

More Historic Weather Station data

Upgrade to MSW Pro to gain access to the past 30 days of data for over 8000 Wavebouys and Weather Stations around the globe.

Join Pro

Comparision Forecast

View Surf forecast
   
jue 02/26 4:50 3ft 11s 6s 4
mph
1010.3mb 64f 61f
3:50 3.5ft 7s 6s 4
mph
1010.8mb 65f 61f
2:50 3.5ft 6s 6s 2 4 mph 1011.1mb 66f 61f
1:50 3.5ft 12s 6s 2 4 mph 1011.7mb 65f 60f
12:50 4ft 8s 6s 2 4 mph 1012.5mb 64f 60f
11:50 4ft 9s 6s 2 4 mph 1013.4mb 63f 60f
10:50 4ft 9s 6s 4
mph
1014.6mb 63f 60f
9:50 4ft 7s 6s 4 7 mph 1014.3mb 62f 60f
8:50 3.5ft 12s 6s  -  2 mph 1014.6mb 62f 60f
7:50 3.5ft 7s 6s 2 4 mph 1014.3mb 62f 59f
6:50 3.5ft 12s 6s 4 7 mph 1014.3mb 62f 58f
5:50 3.5ft 12s 6s 7 9 mph 1014.3mb 62f 59f
4:50 3.5ft 12s 7s 4
mph
1013.6mb 62f 59f
3:50 3.5ft 12s 6s 2 4 mph 1014.5mb 62f 59f
2:50 3.5ft 12s 6s 2 4 mph 1014.5mb 62f 59f
1:50 3.5ft 12s 6s 4 7 mph 1015.3mb 62f 60f
12:50 3.5ft 8s 6s 9 11 mph 1016.1mb 62f 60f
mié 02/25 11:50 3.5ft 12s 6s 9 11 mph 1016.6mb 62f 60f
10:50 3.5ft 13s 6s 7 9 mph 1017mb 62f 60f
9:50 3.5ft 13s 6s  -  mph 1017mb 62f 60f
8:50 3ft 13s 6s  -  2 mph 1017.1mb 62f 60f
7:50 3ft 12s 6s  -  2 mph 1016.9mb 62f 60f
6:50 2.5ft 13s 7s 4
mph
1016.6mb 62f 60f
5:50 2.5ft 14s 6s 4 7 mph 1016.7mb 63f 60f
4:50 3ft 13s 7s 7 9 mph 1017.3mb 63f 60f
3:50 3ft 12s 6s 7 9 mph 1017.5mb 64f 60f
2:50 3.5ft 12s 7s 7 9 mph 1018.1mb 64f 61f
1:50 3.5ft 13s 6s 4 7 mph 1019.1mb 64f 60f
12:50 3ft 13s 6s  -  2 mph 1020mb 64f 61f
11:50 3.5ft 12s 6s 4 7 mph 1020.7mb 63f 60f
10:50 3ft 13s 6s 4 7 mph 1021.6mb 62f 59f
9:50 3.5ft 13s 6s 7
mph
1022mb 62f 59f
8:50 3.5ft 12s 6s 7 9 mph 1022.3mb 62f 59f
7:50 3.5ft 14s 7s 9
mph
1021.7mb 62f 59f
6:50 3.5ft 13s 7s 9 11 mph 1021.4mb 62f 59f
5:50 3ft 13s 7s 9 11 mph 1021.3mb 62f 59f
4:50 3ft 14s 7s 7 9 mph 1021.5mb 62f 59f
3:50 3.5ft 14s 7s 4 7 mph 1021.6mb 62f 59f
2:50 3.5ft 14s 6s 2 4 mph 1022.1mb 62f 59f
1:50 3.5ft 12s 6s  -  2 mph 1022.6mb 62f 59f
12:50 4ft 13s 6s 7 9 mph 1022.5mb 62f 60f
mar 02/24 11:50 4ft 14s 6s 7 9 mph 1022.8mb 62f 60f
10:50 4.5ft 14s 6s 7 9 mph 1022.9mb 62f 60f
9:50 4ft 14s 5s 11 13 mph 1023mb 62f 60f
8:50 4.5ft 14s 5s 13 16 mph 1022.7mb 62f 60f
7:50 3.5ft 13s 6s 13 18 mph 1022.6mb 62f 60f
6:50 3.5ft 14s 6s 11 13 mph 1022.1mb 62f 61f
5:50 3.5ft 15s 6s 11
mph
1021.8mb 62f 62f
4:50 3.5ft 14s 6s 13 16 mph 1021.8mb 62f 62f
3:50 3.5ft 14s 8s 11 13 mph 1021.6mb 62f 62f
2:50 3ft 14s 7s 11 13 mph 1022.1mb 62f 60f
1:50 3ft 14s 6s 9 11 mph 1022.7mb 62f 60f
12:50 3.5ft 15s 6s 7 9 mph 1023.5mb 62f 60f
11:50 3.5ft 14s 6s 7 9 mph 1024.4mb 62f 59f
10:50 3.5ft 15s 6s 11
mph
1025.2mb 62f 58f
9:50 3.5ft 14s 5s 13 16 mph 1025.4mb 62f 58f
8:50 3ft 14s 5s 16 18 mph 1024.8mb 62f 58f
7:50  -   -   -  13 16 mph 1024.3mb 62f 58f
6:50 4ft 15s 6s 16 20 mph 1023.4mb 62f 57f
5:50 3.5ft 15s 5s 18 22 mph 1023.1mb 62f 58f
4:50  -   -   -  18 20 mph 1022.2mb 62f 58f
3:50 3.5ft 15s 6s 16 18 mph 1022.2mb 62f 58f
2:50 3ft 14s 6s 13 16 mph 1022mb 62f 58f
1:50 3ft 15s 6s 13 16 mph 1022mb 62f 58f
12:50 3.5ft 15s 5s 13 16 mph 1021.8mb 62f 58f
lun 02/23 11:50 3.5ft 16s 5s 13 16 mph 1021.5mb 62f 59f
10:50 4ft 16s 5s 16 20 mph 1020.7mb 62f 59f
9:50 4ft 15s 5s 18 20 mph 1020.5mb 62f 60f
8:50 4ft 15s 5s 16 20 mph 1020mb 62f 59f
7:50  -   -   -  18 20 mph 1019.6mb 62f 59f
6:50 3.5ft 15s 5s 18 20 mph 1019.1mb 62f 60f
5:50 3.5ft 16s 6s 13 18 mph 1018.8mb 62f 60f
4:50 3.5ft 15s 6s 16 18 mph 1018.3mb 62f 61f
3:50 3ft 15s 6s 13 16 mph 1017.9mb 63f 60f
2:50 3ft 15s 7s 13 16 mph 1017.5mb 63f 59f
1:50 3ft 15s 6s 13 16 mph 1017mb 63f 59f
12:50 2.5ft 14s 6s 11
mph
1017.3mb 63f 59f
11:50 3.5ft 15s 6s 7 9 mph 1017.6mb 63f 58f
10:50 3.5ft 14s 5s 4 7 mph 1017.5mb 63f 58f
9:50 3.5ft 15s 5s 2 4 mph 1016.9mb 62f 58f
8:50 3.5ft 14s 5s 2 4 mph 1015.9mb 62f 58f
7:50 3.5ft 15s 5s 9 11 mph 1014.8mb 62f 57f
6:50 3.5ft 5s 5s 13 16 mph 1013.9mb 62f 57f
5:50 3.5ft 15s 5s 13 16 mph 1013.1mb 62f 57f
4:50 3.5ft 15s 5s 13 18 mph 1012.9mb 62f 57f
3:50 3.5ft 14s 5s 18 22 mph 1012.4mb 62f 58f
2:50 3ft 14s 5s 16 20 mph 1011.9mb 62f 59f
1:50 2.5ft 15s 6s 13 18 mph 1011.4mb 62f 58f